Time;durP1;ratioP1;P1;durP2;ratioP2;P2;SDS_P1;SDS_P2;PMS_P1;PMS_P2;Temp;Humidity;BMP_temperature;BMP_pressure;BME280_temperature;BME280_humidity;BME280_pressure;Samples;Min_cycle;Max_cycle;Signal;HPM_P1;HPM_P2
2023/08/19 00:01:10;;;;;;;;;;;26.50;70.50;;;;;;5000339;28;19992;-79
2023/08/19 00:03:37;;;;;;;;;;;26.50;70.70;;;;;;5002756;28;19984;-79
2023/08/19 00:06:06;;;;;;;;;;;26.40;70.70;;;;;;5007215;28;20958;-79
2023/08/19 00:08:32;;;;;;;;;;;26.40;70.80;;;;;;5002908;28;20055;-79
2023/08/19 00:10:59;;;;;;;;;;;26.40;70.90;;;;;;5005681;28;19976;-80
2023/08/19 00:13:25;;;;;;;;;;;26.30;71.00;;;;;;5006019;28;19983;-79
2023/08/19 00:15:53;;;;;;;;;;;26.30;71.00;;;;;;5001243;28;20008;-79
2023/08/19 00:18:20;;;;;;;;;;;26.30;71.20;;;;;;5006392;28;19980;-79
2023/08/19 00:20:47;;;;;;;;;;;26.30;71.30;;;;;;5006813;28;19981;-79
2023/08/19 00:23:15;;;;;;;;;;;26.20;71.30;;;;;;5006830;28;19984;-80
2023/08/19 00:25:42;;;;;;;;;;;26.20;71.30;;;;;;5006187;28;20007;-80
2023/08/19 00:28:08;;;;;;;;;;;26.20;72.30;;;;;;5007335;28;20011;-80
2023/08/19 00:30:35;;;;;;;;;;;26.10;71.50;;;;;;5004193;28;20072;-79
2023/08/19 00:33:03;;;;;;;;;;;26.10;71.60;;;;;;5005201;28;19982;-79
2023/08/19 00:35:31;;;;;;;;;;;26.10;71.60;;;;;;5004098;28;19992;-79
2023/08/19 00:37:58;;;;;;;;;;;26.00;71.50;;;;;;5007376;28;20099;-79
2023/08/19 00:40:25;;;;;;;;;;;26.00;71.70;;;;;;5005392;28;19980;-79
2023/08/19 00:42:51;;;;;;;;;;;26.00;71.60;;;;;;5003033;28;19980;-79
2023/08/19 00:45:18;;;;;;;;;;;26.00;71.80;;;;;;5005531;28;20401;-80
2023/08/19 00:47:45;;;;;;;;;;;25.90;71.80;;;;;;5009180;28;20001;-80
2023/08/19 00:50:13;;;;;;;;;;;25.90;71.80;;;;;;5008054;28;19984;-79
2023/08/19 00:52:40;;;;;;;;;;;25.90;71.90;;;;;;5009179;28;20019;-80
2023/08/19 00:55:07;;;;;;;;;;;25.90;72.00;;;;;;5013570;28;19996;-79
2023/08/19 00:57:35;;;;;;;;;;;25.90;72.10;;;;;;5012029;28;19984;-79
2023/08/19 01:00:02;;;;;;;;;;;25.80;72.10;;;;;;5011065;28;20363;-80
2023/08/19 01:02:29;;;;;;;;;;;25.80;72.20;;;;;;5006050;28;19998;-79
2023/08/19 01:04:55;;;;;;;;;;;25.80;72.30;;;;;;5009946;28;19996;-80
2023/08/19 01:07:28;;;;;;;;;;;25.80;72.30;;;;;;5005086;28;20007;-79
2023/08/19 01:09:59;;;;;;;;;;;25.80;72.40;;;;;;5006788;28;19985;-79
2023/08/19 01:12:33;;;;;;;;;;;25.70;72.40;;;;;;5009196;28;19979;-79
2023/08/19 01:15:03;;;;;;;;;;;25.70;72.50;;;;;;5006426;28;19992;-79
2023/08/19 01:17:32;;;;;;;;;;;25.70;72.60;;;;;;5009279;28;19996;-80
2023/08/19 01:19:58;;;;;;;;;;;25.60;72.60;;;;;;5008631;28;19984;-79
2023/08/19 01:22:31;;;;;;;;;;;25.60;72.70;;;;;;5008798;28;20741;-80
2023/08/19 01:24:59;;;;;;;;;;;25.60;72.80;;;;;;5004743;28;20007;-79
2023/08/19 01:27:26;;;;;;;;;;;25.60;72.90;;;;;;5007917;28;20369;-79
2023/08/19 01:29:55;;;;;;;;;;;25.50;72.90;;;;;;5012420;28;19984;-79
2023/08/19 01:32:23;;;;;;;;;;;25.50;73.10;;;;;;5010116;28;19992;-79
2023/08/19 01:34:50;;;;;;;;;;;25.50;73.10;;;;;;5011045;28;19992;-79
2023/08/19 01:37:21;;;;;;;;;;;25.40;73.10;;;;;;5005203;28;19976;-79
2023/08/19 01:39:48;;;;;;;;;;;25.40;73.30;;;;;;5010713;28;20003;-79
2023/08/19 01:42:18;;;;;;;;;;;25.40;73.40;;;;;;5003951;28;19991;-79
2023/08/19 01:44:45;;;;;;;;;;;25.40;73.50;;;;;;5006568;28;20047;-80
2023/08/19 01:47:12;;;;;;;;;;;25.40;73.60;;;;;;5000494;28;19999;-79
2023/08/19 01:49:38;;;;;;;;;;;25.30;73.70;;;;;;5002758;28;19984;-79
2023/08/19 01:52:05;;;;;;;;;;;25.30;73.70;;;;;;5003441;28;19981;-79
2023/08/19 01:54:32;;;;;;;;;;;25.30;73.80;;;;;;5007219;28;19992;-79
2023/08/19 01:56:58;;;;;;;;;;;25.20;73.60;;;;;;5001991;28;19984;-79
2023/08/19 01:59:26;;;;;;;;;;;25.20;73.80;;;;;;5005322;28;19983;-79
2023/08/19 02:01:52;;;;;;;;;;;25.20;73.80;;;;;;5002157;28;19998;-79
2023/08/19 02:04:19;;;;;;;;;;;25.10;73.80;;;;;;5007373;28;20389;-79
2023/08/19 02:06:46;;;;;;;;;;;25.10;73.80;;;;;;5004447;28;19991;-79
2023/08/19 02:09:12;;;;;;;;;;;25.10;73.90;;;;;;5003762;28;19980;-78
2023/08/19 02:11:39;;;;;;;;;;;25.10;74.00;;;;;;5003343;28;19984;-79
2023/08/19 02:14:06;;;;;;;;;;;25.00;73.90;;;;;;5003188;28;20020;-80
2023/08/19 02:16:33;;;;;;;;;;;25.00;74.10;;;;;;4995685;28;19999;-79
2023/08/19 02:19:00;;;;;;;;;;;25.00;74.10;;;;;;5005062;28;19988;-79
2023/08/19 02:21:27;;;;;;;;;;;25.00;74.20;;;;;;5004600;28;19976;-79
2023/08/19 02:23:54;;;;;;;;;;;24.90;74.20;;;;;;4998645;28;19988;-79
2023/08/19 02:26:20;;;;;;;;;;;24.90;74.20;;;;;;5004921;28;20083;-79
2023/08/19 02:28:47;;;;;;;;;;;24.90;74.30;;;;;;5005338;28;19980;-79
2023/08/19 02:31:14;;;;;;;;;;;24.90;74.40;;;;;;5001524;28;20244;-79
2023/08/19 02:33:41;;;;;;;;;;;24.90;74.40;;;;;;5003952;28;19991;-80
2023/08/19 02:36:08;;;;;;;;;;;24.80;74.50;;;;;;5004826;28;19999;-79
2023/08/19 02:38:35;;;;;;;;;;;24.80;74.60;;;;;;5003211;28;20699;-79
2023/08/19 02:41:01;;;;;;;;;;;24.70;74.60;;;;;;5001635;28;19976;-79
2023/08/19 02:43:28;;;;;;;;;;;24.70;74.70;;;;;;5001412;28;20394;-79
2023/08/19 02:45:54;;;;;;;;;;;24.70;74.70;;;;;;5001863;28;20004;-79
2023/08/19 02:48:21;;;;;;;;;;;24.70;74.80;;;;;;4999694;28;19976;-79
2023/08/19 02:50:49;;;;;;;;;;;24.60;74.80;;;;;;5003731;28;19987;-78
2023/08/19 02:53:15;;;;;;;;;;;24.60;75.60;;;;;;5007884;28;19980;-80
2023/08/19 02:55:42;;;;;;;;;;;24.60;75.00;;;;;;5007289;28;20000;-79
2023/08/19 02:58:08;;;;;;;;;;;24.60;75.00;;;;;;5011243;28;20063;-79
2023/08/19 03:00:36;;;;;;;;;;;24.60;75.10;;;;;;5005790;28;19992;-79
2023/08/19 03:03:03;;;;;;;;;;;24.50;75.10;;;;;;5008936;28;20090;-79
2023/08/19 03:05:30;;;;;;;;;;;24.50;75.20;;;;;;5005883;28;20085;-78
2023/08/19 03:07:59;;;;;;;;;;;24.50;75.30;;;;;;5005197;28;19983;-79
2023/08/19 03:10:25;;;;;;;;;;;24.50;75.30;;;;;;5006425;28;19983;-80
2023/08/19 03:12:54;;;;;;;;;;;24.50;75.40;;;;;;5004412;28;20442;-79
2023/08/19 03:15:20;;;;;;;;;;;24.40;75.40;;;;;;5006967;28;20007;-80
2023/08/19 03:17:47;;;;;;;;;;;24.40;75.50;;;;;;5008436;28;19999;-79
2023/08/19 03:20:13;;;;;;;;;;;24.40;75.60;;;;;;5011201;28;19977;-79
2023/08/19 03:22:40;;;;;;;;;;;24.40;75.70;;;;;;5006882;28;19984;-79
2023/08/19 03:25:08;;;;;;;;;;;24.30;75.60;;;;;;5006088;28;20003;-79
2023/08/19 03:27:34;;;;;;;;;;;24.30;76.50;;;;;;5011981;28;19980;-79
2023/08/19 03:30:01;;;;;;;;;;;24.30;75.80;;;;;;5010334;28;20003;-79
2023/08/19 03:32:28;;;;;;;;;;;24.30;75.90;;;;;;5005153;28;19996;-79
2023/08/19 03:34:54;;;;;;;;;;;24.30;75.90;;;;;;5005436;28;19992;-79
2023/08/19 03:37:21;;;;;;;;;;;24.20;75.90;;;;;;5010624;28;19972;-79
2023/08/19 03:39:47;;;;;;;;;;;24.20;76.00;;;;;;5002993;28;19983;-78
2023/08/19 03:42:15;;;;;;;;;;;24.20;76.00;;;;;;5006786;28;19977;-78
2023/08/19 03:44:41;;;;;;;;;;;24.20;76.10;;;;;;5007529;28;20350;-79
2023/08/19 03:47:10;;;;;;;;;;;24.20;76.10;;;;;;5009189;28;20420;-79
2023/08/19 03:49:36;;;;;;;;;;;24.20;76.20;;;;;;5007224;28;19977;-78
2023/08/19 03:52:03;;;;;;;;;;;24.10;76.10;;;;;;5009875;28;19991;-79
2023/08/19 03:54:29;;;;;;;;;;;24.10;76.20;;;;;;5011291;28;19992;-78
2023/08/19 03:56:56;;;;;;;;;;;24.10;76.30;;;;;;5007828;28;19976;-78
2023/08/19 03:59:24;;;;;;;;;;;24.10;76.40;;;;;;5004315;28;19973;-79
2023/08/19 04:01:50;;;;;;;;;;;24.00;76.30;;;;;;5002741;28;20004;-78
2023/08/19 04:04:17;;;;;;;;;;;24.00;76.40;;;;;;5008968;28;19988;-79
2023/08/19 04:06:43;;;;;;;;;;;24.00;76.50;;;;;;5004924;28;20397;-78
2023/08/19 04:09:10;;;;;;;;;;;24.00;76.50;;;;;;5000802;28;20086;-79
2023/08/19 04:11:37;;;;;;;;;;;24.00;76.60;;;;;;5004868;28;19976;-78
2023/08/19 04:14:05;;;;;;;;;;;23.90;76.60;;;;;;5006139;28;20012;-78
2023/08/19 04:16:33;;;;;;;;;;;23.90;76.70;;;;;;5005469;28;20106;-78
2023/08/19 04:19:00;;;;;;;;;;;23.90;76.70;;;;;;5005071;28;20027;-79
2023/08/19 04:21:27;;;;;;;;;;;23.90;76.80;;;;;;5005626;28;19980;-77
2023/08/19 04:23:53;;;;;;;;;;;23.80;76.90;;;;;;5004326;28;19981;-78
2023/08/19 04:26:20;;;;;;;;;;;23.80;76.90;;;;;;5006642;28;19996;-78
2023/08/19 04:28:47;;;;;;;;;;;23.80;77.00;;;;;;5002581;28;19987;-78
2023/08/19 04:31:13;;;;;;;;;;;23.80;77.10;;;;;;5002557;28;20055;-78
2023/08/19 04:33:41;;;;;;;;;;;23.80;77.10;;;;;;5004779;28;20074;-78
2023/08/19 04:36:08;;;;;;;;;;;23.70;77.10;;;;;;5007135;28;19991;-78
2023/08/19 04:38:34;;;;;;;;;;;23.70;77.20;;;;;;5004072;28;20059;-79
2023/08/19 04:41:02;;;;;;;;;;;23.70;77.20;;;;;;5001479;28;20036;-78
2023/08/19 04:43:28;;;;;;;;;;;23.70;77.20;;;;;;5000744;28;19976;-78
2023/08/19 04:45:55;;;;;;;;;;;23.70;77.30;;;;;;5003144;28;20004;-78
2023/08/19 04:48:21;;;;;;;;;;;23.60;77.30;;;;;;5003083;28;20012;-78
2023/08/19 04:50:49;;;;;;;;;;;23.60;77.30;;;;;;5002131;28;20040;-78
2023/08/19 04:53:16;;;;;;;;;;;23.60;77.40;;;;;;5003593;28;20071;-78
2023/08/19 04:55:43;;;;;;;;;;;23.60;77.40;;;;;;4999866;28;19996;-78
2023/08/19 04:58:09;;;;;;;;;;;23.60;77.50;;;;;;5003417;28;20024;-78
2023/08/19 05:00:37;;;;;;;;;;;23.50;77.50;;;;;;4996447;28;20856;-79
2023/08/19 05:03:04;;;;;;;;;;;23.50;77.50;;;;;;5002881;28;20642;-79
2023/08/19 05:05:30;;;;;;;;;;;23.50;77.60;;;;;;5003972;28;20046;-78
2023/08/19 05:07:58;;;;;;;;;;;23.50;77.60;;;;;;5004086;28;19984;-79
2023/08/19 05:10:25;;;;;;;;;;;23.40;77.70;;;;;;5004876;28;19984;-79
2023/08/19 05:12:52;;;;;;;;;;;23.50;77.80;;;;;;5009208;28;19987;-79
2023/08/19 05:15:19;;;;;;;;;;;23.40;77.80;;;;;;5002559;28;20031;-78
2023/08/19 05:17:46;;;;;;;;;;;23.40;77.90;;;;;;5005034;28;20000;-79
2023/08/19 05:20:12;;;;;;;;;;;23.40;78.00;;;;;;5007279;28;19983;-78
2023/08/19 05:22:39;;;;;;;;;;;23.40;78.10;;;;;;4996751;28;19984;-78
2023/08/19 05:25:08;;;;;;;;;;;23.40;78.20;;;;;;5008682;28;19992;-78
2023/08/19 05:27:35;;;;;;;;;;;23.30;78.30;;;;;;5009015;28;21123;-80
2023/08/19 05:30:04;;;;;;;;;;;23.30;78.40;;;;;;5005154;28;19973;-78
2023/08/19 05:32:30;;;;;;;;;;;23.30;78.40;;;;;;5001251;28;19992;-78
2023/08/19 05:34:57;;;;;;;;;;;23.30;78.50;;;;;;5005855;28;20003;-78
2023/08/19 05:37:23;;;;;;;;;;;23.30;78.60;;;;;;5006397;28;20009;-78
2023/08/19 05:39:50;;;;;;;;;;;23.30;79.40;;;;;;5004945;28;20002;-78
2023/08/19 05:42:18;;;;;;;;;;;23.30;78.70;;;;;;5003487;28;20212;-78
2023/08/19 05:44:44;;;;;;;;;;;23.20;78.70;;;;;;5007093;28;20465;-78
2023/08/19 05:47:11;;;;;;;;;;;23.20;78.80;;;;;;5005510;28;20003;-79
2023/08/19 05:49:37;;;;;;;;;;;23.20;78.80;;;;;;5004657;28;20822;-79
2023/08/19 05:52:04;;;;;;;;;;;23.20;78.90;;;;;;5002634;28;19984;-80
2023/08/19 05:54:30;;;;;;;;;;;23.20;79.10;;;;;;5000077;28;19992;-79
2023/08/19 05:56:57;;;;;;;;;;;23.20;79.20;;;;;;5003935;28;20438;-79
2023/08/19 05:59:25;;;;;;;;;;;23.20;79.20;;;;;;5004714;28;19985;-79
2023/08/19 06:01:51;;;;;;;;;;;23.10;79.20;;;;;;5003709;28;19992;-79
2023/08/19 06:04:19;;;;;;;;;;;23.10;79.20;;;;;;5004714;28;19992;-79
2023/08/19 06:06:45;;;;;;;;;;;23.10;79.30;;;;;;5004343;28;19996;-78
2023/08/19 06:09:12;;;;;;;;;;;23.10;79.50;;;;;;5004462;28;19976;-79
2023/08/19 06:11:46;;;;;;;;;;;23.10;79.60;;;;;;5001277;28;20345;-80
2023/08/19 06:14:13;;;;;;;;;;;23.10;79.60;;;;;;5003181;28;20008;-80
2023/08/19 06:16:41;;;;;;;;;;;23.10;79.60;;;;;;5000402;28;20000;-79
2023/08/19 06:19:08;;;;;;;;;;;23.10;79.70;;;;;;5003619;28;19984;-78
2023/08/19 06:21:34;;;;;;;;;;;23.10;79.70;;;;;;5003234;28;19984;-81
2023/08/19 06:24:01;;;;;;;;;;;23.10;79.90;;;;;;5003661;28;19980;-79
2023/08/19 06:26:27;;;;;;;;;;;23.10;80.00;;;;;;4996342;28;20095;-79
2023/08/19 06:28:54;;;;;;;;;;;23.00;80.00;;;;;;5000787;28;20031;-79
2023/08/19 06:31:21;;;;;;;;;;;23.10;80.20;;;;;;4999990;28;19999;-79
2023/08/19 06:33:53;;;;;;;;;;;23.00;80.30;;;;;;5003538;28;19984;-79
2023/08/19 06:36:23;;;;;;;;;;;23.00;80.50;;;;;;5000481;28;19976;-78
2023/08/19 06:38:50;;;;;;;;;;;23.00;80.60;;;;;;5001402;28;20535;-78
2023/08/19 06:41:17;;;;;;;;;;;23.00;80.90;;;;;;5000977;28;19988;-79
2023/08/19 06:43:44;;;;;;;;;;;23.00;81.00;;;;;;5000446;28;20023;-78
2023/08/19 06:46:11;;;;;;;;;;;23.00;81.10;;;;;;4996352;28;20005;-79
2023/08/19 06:48:38;;;;;;;;;;;23.00;81.20;;;;;;5002264;28;20019;-79
2023/08/19 06:51:07;;;;;;;;;;;23.00;81.30;;;;;;5006330;28;19976;-79
2023/08/19 06:53:33;;;;;;;;;;;23.00;81.20;;;;;;5007157;28;19991;-79
2023/08/19 06:56:04;;;;;;;;;;;23.00;81.30;;;;;;5012224;28;20497;-78
2023/08/19 06:58:34;;;;;;;;;;;23.00;81.20;;;;;;5007440;28;19973;-80
2023/08/19 07:01:03;;;;;;;;;;;23.00;81.10;;;;;;5012786;28;19992;-79
2023/08/19 07:03:32;;;;;;;;;;;23.10;81.10;;;;;;5006611;28;20067;-79
2023/08/19 07:05:59;;;;;;;;;;;23.10;81.20;;;;;;5007775;28;19992;-80
2023/08/19 07:08:30;;;;;;;;;;;23.10;81.10;;;;;;5006942;28;19980;-80
2023/08/19 07:10:58;;;;;;;;;;;23.10;81.10;;;;;;5007993;28;20521;-78
2023/08/19 07:13:25;;;;;;;;;;;23.10;81.00;;;;;;5010146;28;20373;-79
2023/08/19 07:15:57;;;;;;;;;;;23.10;81.00;;;;;;5005031;28;20005;-79
2023/08/19 07:18:27;;;;;;;;;;;23.10;81.00;;;;;;5003616;28;20011;-79
2023/08/19 07:20:56;;;;;;;;;;;23.10;80.90;;;;;;5007707;28;19983;-79
2023/08/19 07:23:24;;;;;;;;;;;23.10;80.90;;;;;;5007325;28;20031;-79
2023/08/19 07:25:52;;;;;;;;;;;23.10;80.80;;;;;;5005389;28;20003;-79
2023/08/19 07:28:20;;;;;;;;;;;23.20;80.80;;;;;;5009327;28;20000;-79
2023/08/19 07:30:47;;;;;;;;;;;23.20;80.90;;;;;;5002803;28;20000;-79
2023/08/19 07:33:14;;;;;;;;;;;23.20;80.80;;;;;;5007148;28;19976;-79
2023/08/19 07:35:40;;;;;;;;;;;23.30;80.80;;;;;;5004462;28;20000;-79
2023/08/19 07:38:07;;;;;;;;;;;23.30;80.80;;;;;;5006101;28;19981;-79
2023/08/19 07:40:34;;;;;;;;;;;23.30;80.90;;;;;;4999306;28;19986;-78
2023/08/19 07:43:02;;;;;;;;;;;23.30;81.00;;;;;;5006821;28;19984;-78
2023/08/19 07:45:28;;;;;;;;;;;23.30;80.80;;;;;;5002330;28;20007;-79
2023/08/19 07:47:55;;;;;;;;;;;23.30;80.70;;;;;;5004247;28;20071;-78
2023/08/19 07:50:22;;;;;;;;;;;23.40;80.80;;;;;;5005893;28;19981;-79
2023/08/19 07:52:49;;;;;;;;;;;23.40;80.90;;;;;;5006247;28;19976;-78
2023/08/19 07:55:15;;;;;;;;;;;23.40;81.20;;;;;;5004393;28;20268;-77
2023/08/19 07:57:42;;;;;;;;;;;23.40;80.80;;;;;;5001064;28;19980;-79
2023/08/19 08:00:10;;;;;;;;;;;23.40;80.80;;;;;;5000432;28;20469;-79
2023/08/19 08:02:37;;;;;;;;;;;23.40;80.70;;;;;;5001650;28;20703;-78
2023/08/19 08:05:03;;;;;;;;;;;23.50;80.90;;;;;;5006198;28;19992;-79
2023/08/19 08:07:30;;;;;;;;;;;23.50;80.90;;;;;;5011165;28;20003;-79
2023/08/19 08:09:56;;;;;;;;;;;23.50;80.90;;;;;;5004116;28;20023;-78
2023/08/19 08:12:23;;;;;;;;;;;23.50;80.70;;;;;;5007735;28;19980;-78
2023/08/19 08:14:49;;;;;;;;;;;23.50;80.90;;;;;;5010251;28;19992;-78
2023/08/19 08:17:17;;;;;;;;;;;23.60;80.90;;;;;;5004851;28;20474;-78
2023/08/19 08:19:44;;;;;;;;;;;23.60;80.80;;;;;;4998969;28;20125;-78
2023/08/19 08:22:11;;;;;;;;;;;23.60;80.80;;;;;;5003270;28;20346;-78
2023/08/19 08:24:37;;;;;;;;;;;23.60;80.70;;;;;;5005193;28;20780;-80
2023/08/19 08:27:04;;;;;;;;;;;23.60;80.60;;;;;;4998098;28;20004;-77
2023/08/19 08:29:30;;;;;;;;;;;23.70;80.70;;;;;;5000543;28;19976;-78
2023/08/19 08:31:57;;;;;;;;;;;23.70;81.10;;;;;;5008296;28;20079;-78
2023/08/19 08:34:25;;;;;;;;;;;23.80;80.90;;;;;;5005408;28;20560;-78
2023/08/19 08:36:52;;;;;;;;;;;23.80;80.80;;;;;;5000361;28;20366;-78
2023/08/19 08:39:18;;;;;;;;;;;23.80;80.70;;;;;;5004904;28;19976;-78
2023/08/19 08:41:45;;;;;;;;;;;23.80;80.70;;;;;;5001250;28;19983;-79
2023/08/19 08:44:12;;;;;;;;;;;23.90;80.80;;;;;;5000450;28;19980;-77
2023/08/19 08:46:40;;;;;;;;;;;23.90;80.60;;;;;;5007894;28;20095;-77
2023/08/19 08:49:07;;;;;;;;;;;24.00;80.60;;;;;;5002864;28;19976;-77
2023/08/19 08:51:34;;;;;;;;;;;24.00;80.60;;;;;;5005482;28;19987;-77
2023/08/19 08:54:01;;;;;;;;;;;24.00;80.60;;;;;;5002061;28;19984;-77
2023/08/19 08:56:28;;;;;;;;;;;24.10;80.50;;;;;;5001623;28;19980;-77
2023/08/19 08:58:55;;;;;;;;;;;24.10;80.40;;;;;;5003954;28;19976;-77
2023/08/19 09:01:22;;;;;;;;;;;24.20;80.40;;;;;;4998514;28;19993;-78
2023/08/19 09:03:51;;;;;;;;;;;24.20;80.40;;;;;;5002482;28;20015;-77
2023/08/19 09:06:18;;;;;;;;;;;24.30;80.40;;;;;;5002958;28;20000;-78
2023/08/19 09:08:48;;;;;;;;;;;24.30;80.20;;;;;;5003676;28;19992;-78
2023/08/19 09:11:18;;;;;;;;;;;24.40;80.10;;;;;;5002768;28;19977;-78
2023/08/19 09:13:47;;;;;;;;;;;24.40;79.80;;;;;;5002363;28;19984;-79
2023/08/19 09:16:13;;;;;;;;;;;24.50;79.60;;;;;;5001197;28;20008;-78
2023/08/19 09:18:41;;;;;;;;;;;24.60;79.40;;;;;;5002369;28;19984;-78
2023/08/19 09:21:07;;;;;;;;;;;24.60;79.20;;;;;;4990626;28;19991;-78
2023/08/19 09:23:34;;;;;;;;;;;24.70;79.00;;;;;;4995606;28;20557;-80
2023/08/19 09:26:02;;;;;;;;;;;24.80;78.90;;;;;;5002230;28;19996;-78
2023/08/19 09:28:28;;;;;;;;;;;24.80;78.80;;;;;;5002018;28;19996;-80
2023/08/19 09:30:55;;;;;;;;;;;24.90;78.50;;;;;;5007995;28;19996;-81
2023/08/19 09:33:22;;;;;;;;;;;25.00;78.20;;;;;;5004699;28;20442;-79
2023/08/19 09:35:55;;;;;;;;;;;25.10;78.00;;;;;;5000908;28;20965;-79
2023/08/19 09:38:24;;;;;;;;;;;25.20;77.80;;;;;;5003664;28;19973;-79
2023/08/19 09:40:57;;;;;;;;;;;25.20;77.60;;;;;;5002792;28;19977;-79
2023/08/19 09:43:25;;;;;;;;;;;25.30;77.40;;;;;;5000510;28;19977;-78
2023/08/19 09:45:54;;;;;;;;;;;25.40;77.30;;;;;;5000207;28;20000;-78
2023/08/19 09:48:22;;;;;;;;;;;25.40;77.00;;;;;;5003645;28;19996;-77
2023/08/19 09:50:48;;;;;;;;;;;25.50;76.50;;;;;;5000778;28;19987;-75
2023/08/19 09:53:15;;;;;;;;;;;25.60;76.30;;;;;;5004749;28;19976;-74
2023/08/19 09:55:45;;;;;;;;;;;25.60;75.80;;;;;;5002585;28;20004;-74
2023/08/19 09:58:11;;;;;;;;;;;25.70;75.90;;;;;;5005534;28;19976;-75
2023/08/19 10:00:39;;;;;;;;;;;25.70;75.80;;;;;;5002857;28;20019;-74
2023/08/19 10:03:06;;;;;;;;;;;25.80;75.70;;;;;;5005233;28;20526;-74
2023/08/19 10:05:35;;;;;;;;;;;25.90;75.50;;;;;;5001912;28;19996;-73
2023/08/19 10:08:04;;;;;;;;;;;25.90;74.80;;;;;;4999894;28;20074;-74
2023/08/19 10:10:31;;;;;;;;;;;25.90;74.90;;;;;;4999057;28;19983;-74
2023/08/19 10:12:58;;;;;;;;;;;25.90;74.80;;;;;;5002276;28;20739;-74
2023/08/19 10:15:27;;;;;;;;;;;26.00;74.80;;;;;;5001548;28;19992;-74
2023/08/19 10:17:56;;;;;;;;;;;26.00;74.70;;;;;;5004633;28;19980;-74
2023/08/19 10:20:25;;;;;;;;;;;26.10;74.70;;;;;;4997087;28;19991;-74
2023/08/19 10:22:53;;;;;;;;;;;26.10;74.10;;;;;;5003901;28;19984;-74
2023/08/19 10:25:20;;;;;;;;;;;26.20;74.10;;;;;;5003820;28;19997;-74
2023/08/19 10:27:47;;;;;;;;;;;26.30;73.80;;;;;;5003542;28;20347;-74
2023/08/19 10:30:28;;;;;;;;;;;26.30;73.60;;;;;;5003130;28;20456;-75
2023/08/19 10:32:55;;;;;;;;;;;26.30;72.70;;;;;;5001293;28;20446;-74
2023/08/19 10:35:22;;;;;;;;;;;26.40;72.70;;;;;;5003501;28;20071;-74
2023/08/19 10:37:49;;;;;;;;;;;26.50;72.70;;;;;;5002358;28;19984;-74
2023/08/19 10:40:21;;;;;;;;;;;26.50;72.60;;;;;;5000448;28;19981;-74
2023/08/19 10:42:53;;;;;;;;;;;26.60;72.60;;;;;;5004131;28;19988;-74
2023/08/19 10:45:20;;;;;;;;;;;26.70;72.40;;;;;;5003516;28;19997;-74
2023/08/19 10:47:46;;;;;;;;;;;26.70;72.20;;;;;;5004129;28;19996;-75
2023/08/19 10:50:14;;;;;;;;;;;26.80;71.90;;;;;;5003346;28;19985;-74
2023/08/19 10:52:56;;;;;;;;;;;26.80;71.60;;;;;;5006895;28;19981;-74
2023/08/19 10:55:22;;;;;;;;;;;26.90;71.70;;;;;;5000123;28;19992;-74
2023/08/19 10:57:49;;;;;;;;;;;26.90;71.70;;;;;;5005050;28;19987;-74
2023/08/19 11:00:16;;;;;;;;;;;27.00;71.80;;;;;;5003905;28;19976;-74
2023/08/19 11:02:42;;;;;;;;;;;27.00;71.60;;;;;;5002980;28;19980;-75
2023/08/19 11:05:09;;;;;;;;;;;27.00;71.60;;;;;;5003267;28;20000;-74
2023/08/19 11:07:41;;;;;;;;;;;27.10;71.70;;;;;;5003827;28;20394;-74
2023/08/19 11:10:08;;;;;;;;;;;27.10;71.50;;;;;;5004461;28;19983;-74
2023/08/19 11:12:36;;;;;;;;;;;27.10;71.60;;;;;;5001745;28;22485;-74
2023/08/19 11:15:03;;;;;;;;;;;27.20;71.60;;;;;;4999514;28;20001;-74
2023/08/19 11:17:32;;;;;;;;;;;27.20;71.50;;;;;;5002026;28;19999;-74
2023/08/19 11:20:07;;;;;;;;;;;27.20;71.40;;;;;;5004155;28;20003;-74
2023/08/19 11:22:42;;;;;;;;;;;27.30;71.50;;;;;;5002712;28;20028;-75
2023/08/19 11:25:09;;;;;;;;;;;27.30;71.90;;;;;;5001863;28;20054;-74
2023/08/19 11:27:35;;;;;;;;;;;27.40;71.60;;;;;;5000358;28;20422;-74
2023/08/19 11:30:03;;;;;;;;;;;27.40;71.40;;;;;;5004241;28;20000;-74
2023/08/19 11:32:29;;;;;;;;;;;27.40;71.20;;;;;;5001350;28;20003;-74
2023/08/19 11:34:56;;;;;;;;;;;27.50;71.30;;;;;;5003182;28;20550;-74
2023/08/19 11:37:22;;;;;;;;;;;27.50;71.00;;;;;;5006580;28;19980;-74
2023/08/19 11:39:50;;;;;;;;;;;27.50;71.00;;;;;;5002265;28;19992;-74
2023/08/19 11:42:17;;;;;;;;;;;27.60;71.10;;;;;;5005564;28;19980;-74
2023/08/19 11:44:43;;;;;;;;;;;27.60;71.00;;;;;;5007611;28;19996;-74
2023/08/19 11:47:11;;;;;;;;;;;27.70;70.90;;;;;;5005233;28;20000;-75
2023/08/19 11:49:38;;;;;;;;;;;27.70;70.70;;;;;;5008191;28;20082;-74
2023/08/19 11:52:04;;;;;;;;;;;27.70;70.70;;;;;;5007750;28;19984;-74
2023/08/19 11:54:31;;;;;;;;;;;27.80;70.70;;;;;;5004139;28;19999;-74
2023/08/19 11:57:01;;;;;;;;;;;27.80;69.80;;;;;;5002793;28;19976;-75
2023/08/19 11:59:28;;;;;;;;;;;27.90;69.20;;;;;;5007174;28;19976;-74
2023/08/19 12:01:55;;;;;;;;;;;27.90;69.30;;;;;;5003894;28;19996;-75
2023/08/19 12:04:23;;;;;;;;;;;27.90;69.40;;;;;;5006070;28;19999;-75
2023/08/19 12:06:49;;;;;;;;;;;28.00;69.20;;;;;;5003490;28;19984;-74
2023/08/19 12:09:18;;;;;;;;;;;28.00;69.40;;;;;;5006947;28;20000;-75
2023/08/19 12:11:46;;;;;;;;;;;28.10;69.30;;;;;;5005081;28;20067;-75
2023/08/19 12:14:14;;;;;;;;;;;28.10;69.30;;;;;;5006887;28;19976;-74
2023/08/19 12:16:41;;;;;;;;;;;28.20;69.20;;;;;;5002660;28;20003;-75
2023/08/19 12:19:07;;;;;;;;;;;28.20;68.90;;;;;;5007661;28;19980;-74
2023/08/19 12:21:34;;;;;;;;;;;28.30;68.40;;;;;;5006637;28;19999;-74
2023/08/19 12:24:00;;;;;;;;;;;28.30;67.70;;;;;;5005756;28;19984;-75
2023/08/19 12:26:28;;;;;;;;;;;28.30;66.20;;;;;;5007082;28;19983;-75
2023/08/19 12:28:55;;;;;;;;;;;28.40;66.30;;;;;;5004763;28;20003;-75
2023/08/19 12:31:23;;;;;;;;;;;28.40;66.30;;;;;;5003422;28;19999;-75
2023/08/19 12:33:49;;;;;;;;;;;28.40;66.30;;;;;;5002761;28;19984;-75
2023/08/19 12:36:16;;;;;;;;;;;28.40;66.20;;;;;;5007661;28;19999;-74
2023/08/19 12:38:43;;;;;;;;;;;28.40;66.30;;;;;;5006132;28;20447;-74
2023/08/19 12:41:09;;;;;;;;;;;28.50;66.40;;;;;;5003474;28;19986;-74
2023/08/19 12:43:36;;;;;;;;;;;28.40;66.40;;;;;;5006770;28;20004;-74
2023/08/19 12:46:03;;;;;;;;;;;28.50;66.50;;;;;;5001909;28;20007;-74
2023/08/19 12:48:31;;;;;;;;;;;28.50;66.60;;;;;;5005737;28;20491;-74
2023/08/19 12:50:57;;;;;;;;;;;28.50;66.70;;;;;;5006843;28;20078;-74
2023/08/19 12:53:24;;;;;;;;;;;28.50;66.80;;;;;;5005112;28;20004;-74
2023/08/19 12:55:50;;;;;;;;;;;28.50;66.80;;;;;;5004156;28;20629;-74
2023/08/19 12:58:17;;;;;;;;;;;28.50;66.90;;;;;;5006681;28;20356;-74
2023/08/19 13:00:43;;;;;;;;;;;28.50;67.10;;;;;;5000860;28;20000;-73
2023/08/19 13:03:10;;;;;;;;;;;28.50;67.10;;;;;;5005591;28;20056;-74
2023/08/19 13:05:38;;;;;;;;;;;28.50;67.30;;;;;;5006671;28;20003;-74
2023/08/19 13:08:05;;;;;;;;;;;28.50;67.40;;;;;;5002613;28;20034;-74
2023/08/19 13:10:32;;;;;;;;;;;28.50;67.50;;;;;;5006171;28;19984;-74
2023/08/19 13:12:58;;;;;;;;;;;28.60;67.60;;;;;;5005534;28;19984;-74
2023/08/19 13:15:25;;;;;;;;;;;28.50;67.50;;;;;;5000580;28;19992;-75
2023/08/19 13:17:52;;;;;;;;;;;28.60;67.70;;;;;;5005093;28;20624;-74
2023/08/19 13:20:20;;;;;;;;;;;28.60;67.80;;;;;;5004209;28;19983;-74
2023/08/19 13:22:49;;;;;;;;;;;28.50;67.80;;;;;;5005949;28;19988;-74
2023/08/19 13:25:15;;;;;;;;;;;28.50;67.90;;;;;;5005087;28;20545;-74
2023/08/19 13:27:42;;;;;;;;;;;28.60;68.20;;;;;;5005875;28;19984;-74
2023/08/19 13:30:09;;;;;;;;;;;28.60;68.30;;;;;;5005120;28;20090;-74
2023/08/19 13:32:36;;;;;;;;;;;28.60;68.40;;;;;;5004449;28;20450;-74
2023/08/19 13:35:03;;;;;;;;;;;28.60;68.40;;;;;;5003727;28;19996;-74
2023/08/19 13:37:30;;;;;;;;;;;28.50;68.40;;;;;;5005173;28;20453;-74
2023/08/19 13:39:57;;;;;;;;;;;28.60;68.60;;;;;;5002691;28;19984;-74
2023/08/19 13:42:24;;;;;;;;;;;28.60;68.70;;;;;;5005544;28;20068;-74
2023/08/19 13:44:51;;;;;;;;;;;28.50;68.60;;;;;;5005394;28;20004;-74
2023/08/19 13:47:17;;;;;;;;;;;28.50;68.70;;;;;;5002243;28;19993;-74
2023/08/19 13:49:44;;;;;;;;;;;28.50;68.90;;;;;;5005394;28;20019;-74
2023/08/19 13:52:30;;;;;;;;;;;28.60;69.00;;;;;;5003029;28;19980;-74
2023/08/19 13:54:58;;;;;;;;;;;28.50;69.00;;;;;;5003940;28;19996;-74
2023/08/19 13:57:25;;;;;;;;;;;28.50;69.10;;;;;;5005128;28;19988;-74
2023/08/19 13:59:51;;;;;;;;;;;28.50;69.20;;;;;;5005266;28;19980;-74
2023/08/19 14:02:18;;;;;;;;;;;28.60;69.40;;;;;;5002179;28;19992;-74
2023/08/19 14:04:44;;;;;;;;;;;28.50;69.40;;;;;;5004092;28;20481;-74
2023/08/19 14:07:11;;;;;;;;;;;28.50;69.50;;;;;;5001542;28;19976;-74
2023/08/19 14:09:37;;;;;;;;;;;28.50;69.50;;;;;;5002461;28;19996;-74
2023/08/19 14:12:05;;;;;;;;;;;28.50;69.50;;;;;;5004954;28;19988;-74
2023/08/19 14:14:32;;;;;;;;;;;28.50;69.60;;;;;;5003577;28;19996;-74
2023/08/19 14:16:59;;;;;;;;;;;28.50;69.70;;;;;;5001266;28;19998;-74